Time;durP1;ratioP1;P1;durP2;ratioP2;P2;SDS_P1;SDS_P2;PMS_P1;PMS_P2;Temp;Humidity;BMP_temperature;BMP_pressure;BME280_temperature;BME280_humidity;BME280_pressure;Samples;Min_cycle;Max_cycle;Signal;HPM_P1;HPM_P2
2022/04/17 00:01:55;;;;;;;13.65;8.70;;;;;;;11.46;56.75;95257.78;5066310;28;20429;-71
2022/04/17 00:04:20;;;;;;;11.88;9.43;;;;;;;11.46;56.96;95265.03;5031959;28;20025;-70
2022/04/17 00:06:46;;;;;;;12.10;9.38;;;;;;;11.43;57.21;95255.47;5066586;28;20712;-70
2022/04/17 00:09:11;;;;;;;14.32;9.15;;;;;;;11.41;57.05;95246.81;5065624;28;20637;-71
2022/04/17 00:11:37;;;;;;;13.35;8.82;;;;;;;11.42;57.28;95248.47;5066655;28;20467;-70
2022/04/17 00:14:03;;;;;;;11.18;8.82;;;;;;;11.44;57.39;95240.22;5065673;28;20021;-70
2022/04/17 00:16:28;;;;;;;17.20;9.23;;;;;;;11.43;57.55;95234.00;5066551;28;20058;-69
2022/04/17 00:18:54;;;;;;;12.88;9.13;;;;;;;11.42;57.80;95231.50;5066285;28;20025;-71
2022/04/17 00:21:20;;;;;;;12.02;9.02;;;;;;;11.43;57.62;95236.69;5066081;28;20032;-71
2022/04/17 00:23:46;;;;;;;11.65;9.35;;;;;;;11.43;57.62;95239.38;5066606;28;20145;-69
2022/04/17 00:26:11;;;;;;;13.27;8.85;;;;;;;11.43;57.58;95241.25;5065215;28;20063;-71
2022/04/17 00:28:37;;;;;;;14.82;10.18;;;;;;;11.41;57.52;95236.06;5066312;28;20032;-71
2022/04/17 00:31:02;;;;;;;12.45;9.00;;;;;;;11.41;57.79;95230.69;5065363;28;20032;-71
2022/04/17 00:33:28;;;;;;;13.30;9.00;;;;;;;11.38;58.22;95223.00;5031739;28;20021;-70
2022/04/17 00:35:53;;;;;;;13.63;8.93;;;;;;;11.40;58.64;95223.63;5065706;28;20017;-72
2022/04/17 00:38:18;;;;;;;10.75;8.73;;;;;;;11.35;59.67;95218.00;5065720;28;20020;-71
2022/04/17 00:40:44;;;;;;;11.48;8.63;;;;;;;11.36;59.24;95211.63;5065438;28;20028;-70
2022/04/17 00:43:30;;;;;;;10.80;8.60;;;;;;;11.34;59.77;95209.13;5047719;28;20025;-70
2022/04/17 00:45:56;;;;;;;12.95;8.68;;;;;;;11.30;60.10;95207.00;5065988;28;20028;-71
2022/04/17 00:48:21;;;;;;;12.85;8.63;;;;;;;11.27;60.15;95204.69;5047154;28;20556;-69
2022/04/17 00:50:47;;;;;;;15.20;9.32;;;;;;;11.22;60.29;95197.19;5065811;28;20035;-70
2022/04/17 00:53:13;;;;;;;12.15;9.23;;;;;;;11.12;60.45;95205.53;5064912;28;20020;-70
2022/04/17 00:55:39;;;;;;;13.90;9.25;;;;;;;11.08;60.21;95214.97;5065768;28;20028;-70
2022/04/17 00:58:04;;;;;;;12.40;9.23;;;;;;;11.03;60.70;95206.66;5030971;28;20021;-69
2022/04/17 01:00:32;;;;;;;14.32;8.70;;;;;;;10.97;60.81;95208.22;5047131;28;20043;-69
2022/04/17 01:02:58;;;;;;;13.25;9.25;;;;;;;10.99;60.38;95203.50;5065654;28;20758;-71
2022/04/17 01:05:24;;;;;;;15.50;8.85;;;;;;;10.96;60.33;95204.69;5064326;28;20040;-70
2022/04/17 01:07:49;;;;;;;14.05;9.82;;;;;;;10.90;60.82;95201.94;5065503;28;20028;-72
2022/04/17 01:10:15;;;;;;;11.65;8.90;;;;;;;10.81;60.29;95196.66;5046794;28;20016;-71
2022/04/17 01:12:40;;;;;;;12.07;8.52;;;;;;;10.77;60.69;95208.75;5047437;28;20037;-70
2022/04/17 01:15:06;;;;;;;13.40;8.48;;;;;;;10.74;60.47;95214.47;5030530;28;20021;-69
2022/04/17 01:17:32;;;;;;;12.35;8.10;;;;;;;10.73;59.82;95219.03;5065174;28;20028;-69
2022/04/17 01:19:58;;;;;;;12.20;8.52;;;;;;;10.71;59.81;95210.34;5065306;28;20387;-70
2022/04/17 01:22:25;;;;;;;11.43;7.97;;;;;;;10.65;60.00;95200.34;5046315;28;20073;-71
2022/04/17 01:27:34;;;;;;;12.13;8.10;;;;;;;10.50;60.71;95197.63;5064342;28;20140;-75
2022/04/17 01:30:00;;;;;;;10.70;8.10;;;;;;;10.45;60.90;95192.78;5030788;28;20418;-73
2022/04/17 01:32:25;;;;;;;10.85;8.20;;;;;;;10.42;61.30;95200.34;5064569;28;20029;-69
2022/04/17 01:34:52;;;;;;;13.05;8.60;;;;;;;10.35;61.63;95202.94;5065038;28;20424;-71
2022/04/17 01:37:20;;;;;;;12.48;9.10;;;;;;;10.34;61.70;95195.91;5065033;28;20020;-70
2022/04/17 01:39:46;;;;;;;16.02;9.60;;;;;;;10.32;62.27;95192.56;5064557;28;20031;-70
2022/04/17 01:42:12;;;;;;;12.15;8.75;;;;;;;10.29;62.70;95195.59;5065254;28;20028;-70
2022/04/17 01:44:38;;;;;;;12.30;8.98;;;;;;;10.25;62.25;95192.47;5064354;28;20086;-72
2022/04/17 01:47:03;;;;;;;14.45;8.65;;;;;;;10.27;62.48;95193.94;5065136;28;20028;-71
2022/04/17 01:49:29;;;;;;;13.15;8.38;;;;;;;10.25;62.10;95187.91;5064315;28;20029;-71
2022/04/17 01:51:55;;;;;;;12.30;7.85;;;;;;;10.24;62.28;95188.94;5064937;28;20039;-72
2022/04/17 01:54:24;;;;;;;13.30;8.48;;;;;;;10.17;62.54;95185.34;5046713;28;20398;-69
2022/04/17 01:56:49;;;;;;;13.85;8.60;;;;;;;10.15;62.28;95195.41;5064312;28;20032;-72
2022/04/17 01:59:18;;;;;;;12.52;8.70;;;;;;;10.12;62.78;95190.41;5065065;28;20021;-71
2022/04/17 02:01:44;;;;;;;13.40;8.05;;;;;;;10.11;62.81;95189.56;5045991;28;20495;-71
2022/04/17 02:04:09;;;;;;;13.52;8.43;;;;;;;10.14;62.74;95188.34;5030368;28;20024;-71
2022/04/17 02:06:35;;;;;;;15.10;8.68;;;;;;;10.13;63.45;95192.06;5064108;28;20555;-73
2022/04/17 02:09:00;;;;;;;12.05;8.82;;;;;;;10.18;63.17;95189.69;5064956;28;20035;-70
2022/04/17 02:11:26;;;;;;;11.77;8.85;;;;;;;10.20;62.76;95186.81;5064557;28;20470;-71
2022/04/17 02:13:52;;;;;;;14.02;8.32;;;;;;;10.23;63.05;95186.44;5029938;28;20502;-71
2022/04/17 02:16:18;;;;;;;12.07;8.60;;;;;;;10.22;63.37;95172.22;5066766;28;20111;-71
2022/04/17 02:18:47;;;;;;;12.23;8.80;;;;;;;10.25;62.79;95173.72;5068189;28;20543;-70
2022/04/17 02:21:13;;;;;;;12.27;8.15;;;;;;;10.28;62.61;95159.94;5068812;28;20028;-70
2022/04/17 02:23:40;;;;;;;11.32;7.97;;;;;;;10.29;62.85;95168.78;5049973;28;20046;-72
2022/04/17 02:26:06;;;;;;;13.75;8.57;;;;;;;10.25;62.90;95171.84;5068550;28;20072;-71
2022/04/17 02:28:34;;;;;;;11.88;8.23;;;;;;;10.26;62.71;95164.66;5068003;28;20016;-71
2022/04/17 02:31:01;;;;;;;10.52;8.45;;;;;;;10.22;63.16;95161.50;5050385;28;20029;-71
2022/04/17 02:33:27;;;;;;;12.63;8.77;;;;;;;10.16;63.19;95154.16;5050609;28;20032;-70
2022/04/17 02:35:53;;;;;;;11.38;8.20;;;;;;;10.19;63.49;95158.34;5049928;28;20395;-70
2022/04/17 02:38:18;;;;;;;11.65;8.35;;;;;;;10.21;62.95;95164.34;5068617;28;20239;-69
2022/04/17 02:40:44;;;;;;;11.35;8.10;;;;;;;10.25;62.87;95161.13;5067351;28;20063;-70
2022/04/17 02:43:09;;;;;;;11.95;8.63;;;;;;;10.24;62.65;95164.81;5068280;28;20566;-70
2022/04/17 02:45:34;;;;;;;11.77;8.30;;;;;;;10.23;62.45;95159.66;5067737;28;20070;-69
2022/04/17 02:48:00;;;;;;;14.68;8.38;;;;;;;10.20;62.59;95155.50;5067854;28;20059;-70
2022/04/17 02:50:25;;;;;;;11.60;8.18;;;;;;;10.20;62.36;95158.19;5067678;28;20043;-71
2022/04/17 02:52:54;;;;;;;13.52;8.68;;;;;;;10.20;62.41;95149.28;5067624;28;20067;-71
2022/04/17 02:55:19;;;;;;;12.60;8.98;;;;;;;10.17;62.68;95145.13;5034126;28;20048;-73
2022/04/17 02:57:45;;;;;;;12.18;7.75;;;;;;;10.19;62.80;95153.81;5049261;28;20052;-71
2022/04/17 03:00:11;;;;;;;11.23;8.25;;;;;;;10.21;62.44;95153.63;5068129;28;20486;-71
2022/04/17 03:05:36;;;;;;;11.85;7.68;;;;;;;10.19;62.77;95153.00;5068129;28;20085;-70
2022/04/17 03:08:02;;;;;;;13.75;8.35;;;;;;;10.20;62.63;95155.50;5049283;28;20035;-71
2022/04/17 03:10:27;;;;;;;13.82;9.15;;;;;;;10.22;62.55;95161.50;5067115;28;20032;-70
2022/04/17 07:24:28;;;;;;;5.88;4.10;;;;;;;9.88;69.01;95157.44;5067430;28;20144;-71
2022/04/17 07:26:54;;;;;;;5.97;4.28;;;;;;;9.87;68.89;95155.75;5066966;28;20040;-69
2022/04/17 07:29:28;;;;;;;5.32;4.07;;;;;;;9.84;68.75;95161.47;5067195;28;20039;-70
2022/04/17 07:31:53;;;;;;;5.80;3.97;;;;;;;9.80;69.35;95154.81;5067404;28;20481;-70
2022/04/17 07:34:19;;;;;;;6.95;4.78;;;;;;;9.81;69.26;95151.97;5066606;28;20499;-71
2022/04/17 07:36:47;;;;;;;7.57;4.72;;;;;;;9.85;69.36;95152.44;5033181;28;20029;-71
2022/04/17 07:39:18;;;;;;;7.68;5.15;;;;;;;9.89;69.22;95153.72;5048678;28;20025;-72
2022/04/17 07:41:44;;;;;;;6.22;4.40;;;;;;;9.95;68.91;95157.53;5049157;28;20455;-71
2022/04/17 07:44:12;;;;;;;6.25;3.88;;;;;;;9.97;69.58;95151.00;5048302;28;20016;-71
2022/04/17 07:46:39;;;;;;;6.03;4.15;;;;;;;10.00;69.29;95156.00;5067179;28;20529;-71
2022/04/17 07:49:04;;;;;;;7.53;5.65;;;;;;;10.06;69.09;95158.97;5048886;28;20298;-71
2022/04/17 07:51:30;;;;;;;13.10;9.85;;;;;;;10.05;69.21;95157.28;5066554;28;20028;-71
2022/04/17 07:53:55;;;;;;;8.95;4.80;;;;;;;10.07;69.52;95141.88;5067208;28;20021;-72
2022/04/17 07:56:21;;;;;;;5.03;3.55;;;;;;;10.17;68.15;95144.28;5065909;28;20028;-71
2022/04/17 07:58:46;;;;;;;4.78;3.63;;;;;;;10.20;68.48;95144.78;5048750;28;20024;-70
2022/04/17 08:01:14;;;;;;;5.82;4.18;;;;;;;10.19;69.54;95148.44;5066218;28;20043;-72
2022/04/17 08:06:09;;;;;;;8.10;4.50;;;;;;;10.26;68.86;95144.03;5066618;28;20052;-70
2022/04/17 08:08:35;;;;;;;4.93;3.60;;;;;;;10.23;69.10;95139.06;5048622;28;20032;-70
2022/04/17 08:11:01;;;;;;;5.47;3.60;;;;;;;10.30;68.61;95139.13;5048794;28;20031;-71
2022/04/17 08:13:51;;;;;;;4.25;2.97;;;;;;;10.34;67.72;95134.25;5064945;28;20101;-72
2022/04/17 08:16:18;;;;;;;4.75;3.15;;;;;;;10.38;67.18;95138.25;5066468;28;20034;-70
2022/04/17 08:18:46;;;;;;;6.00;3.60;;;;;;;10.33;67.58;95132.59;5048644;28;20028;-72
2022/04/17 08:21:16;;;;;;;4.72;3.30;;;;;;;10.37;67.79;95129.34;5049134;28;20077;-71
2022/04/17 08:23:41;;;;;;;5.07;3.53;;;;;;;10.37;68.32;95133.88;5066052;28;20048;-70
2022/04/17 08:26:07;;;;;;;5.90;3.60;;;;;;;10.39;68.48;95130.00;5065590;28;20149;-71
2022/04/17 08:28:32;;;;;;;7.32;3.80;;;;;;;10.49;68.41;95131.63;5031878;28;20464;-71
2022/04/17 08:30:58;;;;;;;5.20;3.35;;;;;;;10.45;67.31;95135.63;5065956;28;20041;-72
2022/04/17 08:33:26;;;;;;;4.32;3.33;;;;;;;10.47;67.33;95128.28;5066172;28;20415;-74
2022/04/17 08:35:57;;;;;;;5.82;4.18;;;;;;;10.54;67.47;95128.38;5065832;28;20020;-71
2022/04/17 08:38:23;;;;;;;8.75;4.57;;;;;;;10.56;68.20;95131.72;5065896;28;20410;-72
2022/04/17 08:40:49;;;;;;;7.15;4.03;;;;;;;10.59;67.24;95126.78;5047883;28;20506;-72
2022/04/17 08:43:17;;;;;;;6.22;3.65;;;;;;;10.60;67.16;95131.16;5065800;28;20025;-72
2022/04/17 08:45:43;;;;;;;6.82;4.38;;;;;;;10.67;66.84;95128.59;5048525;28;20505;-72
2022/04/17 08:48:08;;;;;;;5.70;3.38;;;;;;;10.73;66.62;95127.84;5047277;28;20032;-73
2022/04/17 08:50:34;;;;;;;5.47;2.75;;;;;;;10.77;66.51;95127.47;5065707;28;20031;-70
2022/04/17 08:53:00;;;;;;;4.10;2.67;;;;;;;10.78;65.78;95131.81;5047428;28;20025;-71
2022/04/17 08:55:25;;;;;;;3.97;2.67;;;;;;;10.78;66.14;95129.97;5047955;28;20029;-71
2022/04/17 08:57:51;;;;;;;6.22;4.65;;;;;;;10.80;66.18;95127.09;5031000;28;20039;-70
2022/04/17 09:00:17;;;;;;;4.35;3.30;;;;;;;10.79;66.09;95131.63;5065837;28;20021;-71
2022/04/17 09:02:43;;;;;;;6.90;3.70;;;;;;;10.80;66.41;95121.72;5064894;28;20052;-71
2022/04/17 09:05:13;;;;;;;6.50;3.30;;;;;;;10.75;66.53;95125.78;5047197;28;20033;-71
2022/04/17 09:07:50;;;;;;;6.68;3.22;;;;;;;10.78;66.10;95123.75;5047550;28;20491;-71
2022/04/17 09:10:31;;;;;;;5.95;3.10;;;;;;;10.83;65.49;95116.00;5065179;28;20575;-70
2022/04/17 09:12:59;;;;;;;5.80;2.92;;;;;;;10.77;65.57;95119.41;5065730;28;20047;-71
2022/04/17 09:15:25;;;;;;;5.38;3.72;;;;;;;10.79;65.56;95120.03;5065334;28;20227;-71
2022/04/17 09:17:51;;;;;;;5.82;3.53;;;;;;;10.81;65.77;95120.69;5064977;28;20093;-69
2022/04/17 09:20:21;;;;;;;5.00;3.00;;;;;;;10.79;66.09;95120.03;5065707;28;20024;-70
2022/04/17 09:22:52;;;;;;;4.25;2.85;;;;;;;10.80;67.64;95121.72;5064157;28;20067;-72
2022/04/17 09:25:18;;;;;;;4.80;3.28;;;;;;;10.81;68.25;95109.97;5065873;28;20024;-71
2022/04/17 09:28:03;;;;;;;4.93;3.35;;;;;;;10.78;68.76;95107.66;5064618;28;20032;-72
2022/04/17 09:30:30;;;;;;;4.90;2.50;;;;;;;10.78;68.36;95110.34;5064795;28;20068;-71
2022/04/17 09:32:57;;;;;;;6.80;3.80;;;;;;;10.74;68.02;95110.72;5065226;28;20027;-71
2022/04/17 09:35:23;;;;;;;8.77;4.75;;;;;;;10.72;67.59;95095.84;5064708;28;20028;-71
2022/04/17 09:38:00;;;;;;;9.90;6.13;;;;;;;10.72;67.98;95099.31;5065361;28;20044;-71
2022/04/17 09:40:31;;;;;;;7.97;4.68;;;;;;;10.72;67.56;95088.59;5064778;28;20047;-70
2022/04/17 09:43:12;;;;;;;4.72;3.10;;;;;;;10.77;68.58;95084.53;5047565;28;20031;-70
2022/04/17 09:46:04;;;;;;;4.78;2.60;;;;;;;10.85;68.13;95079.09;5064505;28;20024;-71
2022/04/17 09:48:40;;;;;;;3.97;2.40;;;;;;;10.97;67.66;95069.53;5047819;28;20442;-71
2022/04/17 09:51:27;;;;;;;5.82;2.90;;;;;;;10.99;67.37;95072.81;5065114;28;20029;-71
2022/04/17 09:54:00;;;;;;;4.63;2.83;;;;;;;10.96;67.85;95072.41;5046343;28;20426;-71
2022/04/17 09:56:30;;;;;;;4.95;3.50;;;;;;;10.97;67.55;95064.16;5065195;28;20021;-72
2022/04/17 09:58:55;;;;;;;5.07;3.65;;;;;;;10.84;66.20;95072.88;5064705;28;20048;-73
2022/04/17 10:01:21;;;;;;;4.90;3.47;;;;;;;10.65;66.57;95068.91;5029980;28;20031;-71
2022/04/17 10:03:46;;;;;;;5.13;3.85;;;;;;;10.43;68.22;95073.34;5030592;28;20025;-73
2022/04/17 10:06:12;;;;;;;4.63;3.40;;;;;;;10.47;66.67;95071.97;5046483;28;20050;-70
2022/04/17 10:08:39;;;;;;;4.55;3.15;;;;;;;10.35;66.55;95068.91;5064848;28;20465;-71
2022/04/17 10:11:04;;;;;;;5.85;3.80;;;;;;;10.13;67.23;95063.44;5029816;28;20070;-70
2022/04/17 10:13:30;;;;;;;5.32;3.67;;;;;;;9.91;67.66;95055.28;5047007;28;20028;-72
2022/04/17 10:16:00;;;;;;;4.65;3.60;;;;;;;9.72;68.48;95065.47;5064463;28;20028;-72
2022/04/17 10:18:27;;;;;;;7.25;4.65;;;;;;;9.62;68.91;95051.53;5030536;28;20086;-72
2022/04/17 10:20:52;;;;;;;6.55;4.55;;;;;;;9.52;69.76;95049.09;5064682;28;20025;-70
2022/04/17 10:23:18;;;;;;;6.40;4.00;;;;;;;9.55;70.02;95045.19;5045985;28;20121;-72
2022/04/17 10:25:46;;;;;;;5.80;4.20;;;;;;;9.52;69.89;95041.06;5013728;28;20021;-71
2022/04/17 10:28:11;;;;;;;5.70;4.32;;;;;;;9.46;70.26;95039.91;5030114;28;20631;-71
2022/04/17 10:31:03;;;;;;;7.22;5.45;;;;;;;9.31;70.01;95041.72;5030350;28;20020;-72
2022/04/17 10:33:35;;;;;;;8.52;4.90;;;;;;;9.27;69.98;95052.78;5065056;28;20028;-73
2022/04/17 10:36:46;;;;;;;6.20;4.43;;;;;;;9.21;69.96;95056.16;5046447;28;20033;-71
2022/04/17 10:39:17;;;;;;;6.38;4.25;;;;;;;9.18;70.86;95044.97;5037282;28;20055;-71
2022/04/17 10:41:43;;;;;;;9.27;4.70;;;;;;;9.13;70.85;95053.53;5017626;28;20111;-71
2022/04/17 10:44:09;;;;;;;6.88;4.68;;;;;;;9.11;70.37;95036.81;5049932;28;20548;-72
2022/04/17 10:46:48;;;;;;;6.50;4.68;;;;;;;9.08;71.42;95035.34;5068265;28;20042;-71
2022/04/17 10:49:16;;;;;;;6.70;4.88;;;;;;;8.97;71.51;95023.22;5049621;28;20040;-73
2022/04/17 10:52:04;;;;;;;6.38;4.50;;;;;;;8.86;71.49;95031.66;5068301;28;20512;-70
2022/04/17 10:55:09;;;;;;;8.07;5.15;;;;;;;8.88;72.52;95030.44;5052618;28;20115;-70
2022/04/17 10:57:47;;;;;;;7.72;5.03;;;;;;;8.82;72.01;95025.00;5055305;28;20166;-71
2022/04/17 11:00:33;;;;;;;7.18;5.22;;;;;;;8.77;72.27;95023.66;5033566;28;20422;-71
2022/04/17 11:03:00;;;;;;;6.32;4.28;;;;;;;8.78;72.51;95022.69;5050423;28;20027;-71
2022/04/17 11:08:21;;;;;;;6.85;4.65;;;;;;;8.78;71.30;95017.31;5067742;28;20093;-73
2022/04/17 11:10:51;;;;;;;7.43;4.78;;;;;;;8.75;71.51;95017.66;5048974;28;20469;-71
2022/04/17 11:13:17;;;;;;;7.32;4.57;;;;;;;8.71;71.23;95002.97;5050118;28;20028;-71
2022/04/17 11:15:43;;;;;;;7.20;4.47;;;;;;;8.67;71.49;95007.03;5049420;28;20112;-72
2022/04/17 11:18:08;;;;;;;6.15;4.30;;;;;;;8.61;72.36;95010.41;5067557;28;20109;-72
2022/04/17 11:20:34;;;;;;;7.18;4.93;;;;;;;8.63;72.32;95019.06;5049268;28;20028;-70
2022/04/17 11:23:00;;;;;;;6.55;5.13;;;;;;;8.63;71.72;95014.56;5049461;28;20514;-72
2022/04/17 11:25:26;;;;;;;8.30;4.93;;;;;;;8.61;71.74;95013.88;5067279;28;20036;-71
2022/04/17 11:27:52;;;;;;;7.72;4.85;;;;;;;8.56;71.98;95000.22;5048763;28;20028;-72
2022/04/17 11:30:17;;;;;;;5.57;4.45;;;;;;;8.60;73.30;95016.75;5032888;28;20047;-71
2022/04/17 11:32:46;;;;;;;8.23;5.00;;;;;;;8.69;73.25;95009.53;5066616;28;20601;-72
2022/04/17 11:35:12;;;;;;;7.50;5.22;;;;;;;8.76;72.95;95016.66;5067299;28;20024;-71
2022/04/17 11:37:38;;;;;;;7.70;5.32;;;;;;;8.81;72.83;95025.97;5049302;28;20025;-71
2022/04/17 11:40:14;;;;;;;6.82;5.22;;;;;;;8.71;74.40;95031.53;5067394;28;20384;-71
2022/04/17 11:42:50;;;;;;;6.72;5.28;;;;;;;8.82;74.11;95030.34;5067150;28;20407;-71
2022/04/17 11:45:20;;;;;;;8.90;4.18;;;;;;;8.96;74.18;95026.06;5031683;28;20457;-71
2022/04/17 11:47:47;;;;;;;6.97;3.85;;;;;;;9.01;74.96;95026.38;5048802;28;20335;-70
2022/04/17 11:50:19;;;;;;;5.30;3.50;;;;;;;9.11;74.79;95028.81;5066119;28;20055;-70
2022/04/17 11:52:49;;;;;;;6.95;4.32;;;;;;;9.13;72.85;95021.44;5050497;28;20039;-72
2022/04/17 11:55:14;;;;;;;8.20;5.50;;;;;;;9.09;73.02;95026.31;5048721;28;20060;-71
2022/04/17 11:57:40;;;;;;;7.15;5.05;;;;;;;9.06;73.34;95026.66;5048797;28;20060;-71
2022/04/17 12:00:06;;;;;;;6.15;3.67;;;;;;;9.08;72.43;95029.16;5066942;28;20491;-71
2022/04/17 12:02:31;;;;;;;6.22;3.85;;;;;;;9.13;71.75;95029.47;5031630;28;20036;-70
2022/04/17 12:05:05;;;;;;;6.40;4.00;;;;;;;9.10;72.32;95021.78;5067107;28;20024;-71
2022/04/17 12:07:31;;;;;;;6.07;3.58;;;;;;;9.22;70.66;95016.88;5066108;28;20059;-71
2022/04/17 12:10:06;;;;;;;5.07;3.50;;;;;;;9.23;71.75;95011.34;5067034;28;20074;-71
2022/04/17 12:12:43;;;;;;;6.35;4.00;;;;;;;9.25;71.52;95019.19;5066552;28;20031;-71
2022/04/17 12:15:10;;;;;;;6.95;4.10;;;;;;;9.17;71.91;95021.91;5033386;28;20029;-72
2022/04/17 12:17:35;;;;;;;7.00;4.50;;;;;;;9.16;72.36;95021.06;5066783;28;20033;-73
2022/04/17 12:20:05;;;;;;;9.88;5.10;;;;;;;9.23;71.41;95016.69;5048215;28;20031;-71
2022/04/17 12:22:30;;;;;;;10.15;7.00;;;;;;;9.17;70.36;95016.56;5049056;28;20072;-70
2022/04/17 12:24:56;;;;;;;8.50;5.22;;;;;;;9.18;71.32;95019.06;5047481;28;20048;-72
2022/04/17 12:27:21;;;;;;;6.10;4.60;;;;;;;9.18;71.48;95024.41;5066051;28;20036;-72
2022/04/17 12:29:47;;;;;;;6.78;4.32;;;;;;;9.24;70.28;95007.66;5048112;28;20029;-70
2022/04/17 12:32:23;;;;;;;4.18;2.30;;;;;;;9.35;69.48;95016.28;5048593;28;20123;-71
2022/04/17 12:34:59;;;;;;;2.95;1.80;;;;;;;9.25;69.12;95013.84;5032053;28;20032;-72
2022/04/17 12:37:32;;;;;;;2.65;1.40;;;;;;;9.19;67.80;95020.72;5047607;28;20103;-73
2022/04/17 12:40:20;;;;;;;1.40;0.70;;;;;;;9.14;67.28;95021.25;5066217;28;20032;-71
2022/04/17 12:42:46;;;;;;;2.15;0.70;;;;;;;9.14;68.25;95010.56;5047374;28;20502;-74
2022/04/17 12:45:25;;;;;;;0.93;0.50;;;;;;;9.11;67.23;95004.72;5048080;28;20104;-75
2022/04/17 12:48:04;;;;;;;1.17;0.60;;;;;;;9.00;67.76;95000.63;5066088;28;20123;-71
2022/04/17 12:50:29;;;;;;;1.38;0.80;;;;;;;9.04;68.35;95004.63;5065011;28;20016;-71
2022/04/17 12:52:56;;;;;;;2.08;1.10;;;;;;;9.13;67.74;95008.06;5048140;28;20243;-73
2022/04/17 12:55:21;;;;;;;3.53;1.83;;;;;;;9.13;66.31;94998.19;5065540;28;20100;-70
2022/04/17 12:57:55;;;;;;;1.85;1.00;;;;;;;9.03;65.76;95003.78;5014360;28;20031;-71
2022/04/17 13:00:20;;;;;;;1.23;0.50;;;;;;;8.93;64.44;95000.50;5065206;28;20060;-74
2022/04/17 13:02:47;;;;;;;1.55;0.85;;;;;;;8.86;64.11;94989.69;5065011;28;20498;-73
2022/04/17 13:05:22;;;;;;;1.75;0.75;;;;;;;8.93;64.65;94989.78;5031760;28;20056;-74
2022/04/17 13:07:48;;;;;;;2.10;0.80;;;;;;;8.95;64.23;94989.63;5046871;28;20097;-71
2022/04/17 13:10:13;;;;;;;1.60;0.80;;;;;;;9.03;63.47;94985.06;5065788;28;20911;-71
2022/04/17 13:12:43;;;;;;;1.95;0.98;;;;;;;9.02;63.01;94983.41;5064971;28;20024;-72
2022/04/17 13:15:09;;;;;;;2.28;1.10;;;;;;;9.03;63.92;94982.38;5065422;28;20035;-71
2022/04/17 13:17:47;;;;;;;2.65;1.40;;;;;;;9.10;63.82;94979.00;5047136;28;20027;-71
2022/04/17 13:20:13;;;;;;;1.60;0.70;;;;;;;9.08;63.14;94981.00;5065065;28;20028;-72
2022/04/17 13:22:39;;;;;;;1.25;0.70;;;;;;;9.12;63.27;94982.31;5047220;28;20468;-71
2022/04/17 13:25:09;;;;;;;1.58;0.77;;;;;;;9.10;63.08;94987.84;5064482;28;20037;-70
2022/04/17 13:27:34;;;;;;;1.27;0.50;;;;;;;9.08;62.77;94978.31;5047699;28;20487;-72
2022/04/17 13:30:00;;;;;;;0.52;0.40;;;;;;;9.08;62.18;94979.16;5064522;28;20036;-71
2022/04/17 13:32:25;;;;;;;0.88;0.30;;;;;;;9.02;60.32;94980.72;5065214;28;20102;-73
2022/04/17 13:34:51;;;;;;;0.40;0.28;;;;;;;9.00;61.43;94977.38;5064894;28;20423;-72
2022/04/17 13:40:02;;;;;;;1.17;0.50;;;;;;;8.96;60.90;94978.78;5050205;28;20035;-70
2022/04/17 13:42:27;;;;;;;1.35;0.50;;;;;;;9.01;60.92;94971.03;5064570;28;20028;-70
2022/04/17 13:44:52;;;;;;;2.67;1.80;;;;;;;8.96;63.73;94970.75;5047055;28;20024;-72
2022/04/17 13:47:18;;;;;;;7.72;3.88;;;;;;;8.95;64.31;94973.56;5064654;28;20025;-70
2022/04/17 13:49:43;;;;;;;5.60;4.38;;;;;;;8.88;65.90;94976.16;5065115;28;20415;-70
2022/04/17 13:52:09;;;;;;;6.57;4.15;;;;;;;8.85;65.91;94973.84;5064870;28;20461;-71
2022/04/17 13:54:36;;;;;;;7.22;4.88;;;;;;;8.74;65.89;94975.88;5065037;28;20356;-70
2022/04/17 13:57:03;;;;;;;9.73;7.15;;;;;;;8.68;65.85;94979.28;5046906;28;20490;-71
2022/04/17 13:59:29;;;;;;;10.15;7.13;;;;;;;8.60;65.82;94980.16;5064421;28;20090;-71
2022/04/17 14:01:54;;;;;;;8.75;6.65;;;;;;;8.52;66.51;94973.00;5064733;28;20075;-71
2022/04/17 14:04:20;;;;;;;8.27;5.90;;;;;;;8.48;67.25;94973.53;5064259;28;20029;-70
2022/04/17 14:06:45;;;;;;;7.30;4.35;;;;;;;8.42;66.79;94967.00;5065183;28;20025;-71
2022/04/17 14:09:11;;;;;;;5.43;3.90;;;;;;;8.38;65.34;94969.19;5064743;28;20153;-71
2022/04/17 14:11:36;;;;;;;6.85;3.83;;;;;;;8.32;66.72;94961.88;5048477;28;20025;-71
2022/04/17 14:14:01;;;;;;;8.02;3.80;;;;;;;8.21;67.25;94964.94;5068073;28;20041;-72
2022/04/17 14:16:27;;;;;;;4.40;3.35;;;;;;;8.16;66.64;94973.47;5050302;28;20031;-72
2022/04/17 14:18:52;;;;;;;6.70;4.03;;;;;;;8.05;66.50;94977.38;5068973;28;20024;-71
2022/04/17 14:21:18;;;;;;;6.70;3.92;;;;;;;7.95;67.05;94976.75;5068340;28;20032;-70
2022/04/17 14:23:43;;;;;;;4.70;3.45;;;;;;;7.86;67.33;94978.59;5068935;28;20036;-74
2022/04/17 14:26:09;;;;;;;6.55;3.92;;;;;;;7.75;68.18;94971.78;5067959;28;20118;-72
2022/04/17 14:28:34;;;;;;;6.65;3.90;;;;;;;7.72;68.61;94972.94;5068848;28;20028;-72
2022/04/17 14:31:01;;;;;;;5.18;4.28;;;;;;;7.70;68.49;94972.31;5068546;28;20028;-72
2022/04/17 14:33:27;;;;;;;6.85;4.00;;;;;;;7.67;68.16;94973.47;5050672;28;20074;-71
2022/04/17 14:35:57;;;;;;;7.88;4.15;;;;;;;7.60;68.61;94974.31;5068781;28;20029;-70
2022/04/17 14:38:23;;;;;;;6.75;4.03;;;;;;;7.59;68.96;94972.66;5050554;28;20086;-72
2022/04/17 14:40:48;;;;;;;7.03;3.88;;;;;;;7.44;66.93;94970.69;5068739;28;20074;-71
2022/04/17 14:43:14;;;;;;;5.75;4.03;;;;;;;7.32;67.71;94966.69;5049854;28;20600;-72
2022/04/17 14:45:39;;;;;;;7.38;3.63;;;;;;;7.18;67.14;94969.03;5068918;28;20020;-72
2022/04/17 14:48:05;;;;;;;6.38;3.80;;;;;;;7.13;68.31;94972.19;5067667;28;20144;-72
2022/04/17 14:50:31;;;;;;;7.10;3.42;;;;;;;7.01;69.65;94971.69;5068187;28;20066;-72
2022/04/17 14:52:57;;;;;;;5.68;3.88;;;;;;;6.97;69.21;94973.03;5050547;28;20027;-70
2022/04/17 14:55:22;;;;;;;4.65;3.38;;;;;;;6.96;69.22;94967.84;5067335;28;20021;-70
2022/04/17 14:57:48;;;;;;;6.20;3.72;;;;;;;6.90;69.06;94969.38;5050349;28;20032;-71
2022/04/17 15:00:14;;;;;;;6.50;4.10;;;;;;;6.87;68.90;94962.50;5049072;28;20419;-71
2022/04/17 15:02:40;;;;;;;6.95;4.45;;;;;;;6.85;69.56;94967.16;5050182;28;20466;-70
2022/04/17 15:05:07;;;;;;;9.85;5.28;;;;;;;6.89;69.42;94978.34;5049572;28;20442;-70
2022/04/17 15:07:33;;;;;;;20.33;6.90;;;;;;;6.78;69.70;94980.34;5068007;28;20032;-71
2022/04/17 15:09:59;;;;;;;9.98;5.32;;;;;;;6.80;69.70;94986.31;5067905;28;20048;-70
2022/04/17 15:12:24;;;;;;;9.95;5.00;;;;;;;6.83;70.96;94979.84;5067362;28;20090;-70
2022/04/17 15:14:50;;;;;;;8.10;4.60;;;;;;;6.89;70.52;94981.00;5067777;28;20039;-71
2022/04/17 15:17:15;;;;;;;6.70;4.28;;;;;;;6.99;70.52;94980.84;5048948;28;20021;-70
2022/04/17 15:19:40;;;;;;;7.18;4.30;;;;;;;7.09;69.47;94978.88;5068010;28;20022;-71
2022/04/17 15:22:06;;;;;;;4.43;1.98;;;;;;;7.12;68.53;94977.69;5049116;28;20033;-71
2022/04/17 15:24:32;;;;;;;2.55;1.10;;;;;;;7.16;64.94;94969.19;5067189;28;20102;-72
2022/04/17 15:26:57;;;;;;;1.92;1.00;;;;;;;7.13;63.21;94976.69;5067150;28;20024;-71
2022/04/17 15:29:23;;;;;;;2.75;1.10;;;;;;;7.23;64.81;94974.69;5067406;28;20036;-70
2022/04/17 15:31:48;;;;;;;5.63;2.10;;;;;;;7.23;65.26;94985.38;5067275;28;20021;-70
2022/04/17 15:34:14;;;;;;;3.70;2.40;;;;;;;7.20;67.15;94983.03;5066696;28;20017;-70
2022/04/17 15:36:39;;;;;;;4.60;2.20;;;;;;;7.13;66.46;94977.53;5067585;28;20024;-70
2022/04/17 15:39:06;;;;;;;3.22;1.58;;;;;;;7.12;67.71;94980.38;5066996;28;20025;-70
2022/04/17 15:41:31;;;;;;;4.03;2.35;;;;;;;7.17;65.71;94986.03;5049364;28;20050;-71
2022/04/17 15:49:26;;;;;;;3.95;2.00;;;;;;;7.05;65.81;94988.19;5051775;28;20035;-70
2022/04/17 15:51:52;;;;;;;3.28;1.98;;;;;;;7.03;66.39;94976.84;5066334;28;20029;-71
2022/04/17 15:54:17;;;;;;;3.83;1.73;;;;;;;7.05;65.94;94983.69;5067174;28;20482;-71
2022/04/17 15:56:43;;;;;;;3.75;2.22;;;;;;;7.05;64.80;94982.84;5048648;28;20040;-70
2022/04/17 15:59:09;;;;;;;3.55;1.50;;;;;;;7.02;63.23;94992.03;5049089;28;20036;-71
2022/04/17 16:01:34;;;;;;;1.73;0.95;;;;;;;7.14;63.52;94991.72;5066157;28;20407;-71
2022/04/17 16:04:00;;;;;;;5.47;1.42;;;;;;;7.16;63.03;94990.53;5066775;28;20036;-71
2022/04/17 16:06:25;;;;;;;5.85;3.00;;;;;;;7.10;62.21;94985.03;5048569;28;20025;-71
2022/04/17 16:08:51;;;;;;;5.43;1.90;;;;;;;7.04;63.27;94986.53;5066192;28;20457;-69
2022/04/17 16:11:16;;;;;;;3.80;2.20;;;;;;;7.05;64.00;94994.38;5067055;28;20028;-71